createdAt,value
2016-08-09T00:00:00.615Z,7.01
2016-08-09T00:00:09.344Z,6.94
2016-08-09T00:00:18.055Z,6.94
2016-08-09T00:00:26.802Z,6.95
2016-08-09T00:00:35.497Z,6.94
2016-08-09T00:00:44.240Z,6.95
2016-08-09T00:00:52.945Z,6.99
2016-08-09T00:01:01.643Z,6.95
2016-08-09T00:01:10.345Z,6.94
2016-08-09T00:01:19.085Z,6.98
2016-08-09T00:01:27.826Z,7.02
2016-08-09T00:01:36.541Z,6.95
2016-08-09T00:01:45.277Z,6.98
2016-08-09T00:02:02.720Z,6.97
2016-08-09T00:02:11.439Z,6.95
2016-08-09T00:02:20.153Z,6.98
2016-08-09T00:02:28.853Z,6.94
2016-08-09T00:02:37.553Z,6.91
2016-08-09T00:02:46.218Z,6.95
2016-08-09T00:02:54.943Z,6.95
2016-08-09T00:03:04.339Z,7.01
2016-08-09T00:03:13.035Z,6.9
2016-08-09T00:03:21.817Z,7.01
2016-08-09T00:03:30.521Z,6.95
2016-08-09T00:03:39.254Z,6.97
2016-08-09T00:03:47.938Z,6.95
2016-08-09T00:03:56.624Z,6.91
2016-08-09T00:04:06.057Z,6.99
2016-08-09T00:04:14.767Z,6.95
2016-08-09T00:04:23.501Z,6.87
2016-08-09T00:04:32.208Z,6.98
2016-08-09T00:04:40.926Z,6.98
2016-08-09T00:04:49.653Z,6.97
2016-08-09T00:04:58.316Z,6.98
2016-08-09T00:05:07.041Z,6.97
2016-08-09T00:05:15.742Z,6.97
2016-08-09T00:05:24.451Z,6.97
2016-08-09T00:05:33.166Z,6.91
2016-08-09T00:05:41.901Z,6.95
2016-08-09T00:05:50.609Z,6.94
2016-08-09T00:05:59.342Z,6.91
2016-08-09T00:06:08.062Z,6.97
2016-08-09T00:06:16.775Z,6.97
2016-08-09T00:06:26.200Z,7.04
2016-08-09T00:06:34.967Z,6.98
2016-08-09T00:06:43.698Z,6.97
2016-08-09T00:06:52.421Z,6.95
2016-08-09T00:07:01.138Z,6.95
2016-08-09T00:07:09.834Z,6.94
2016-08-09T00:07:18.542Z,6.98
2016-08-09T00:07:27.244Z,6.97
2016-08-09T00:07:35.961Z,6.94
2016-08-09T00:07:44.698Z,6.94
2016-08-09T00:07:53.434Z,6.94
2016-08-09T00:08:02.152Z,6.86
2016-08-09T00:08:10.908Z,6.99
2016-08-09T00:08:19.641Z,6.97
2016-08-09T00:08:28.365Z,6.97
2016-08-09T00:08:37.119Z,6.95
2016-08-09T00:08:45.841Z,6.84
2016-08-09T00:08:54.547Z,6.99
2016-08-09T00:09:03.964Z,6.95
2016-08-09T00:09:12.704Z,6.9
2016-08-09T00:09:21.418Z,6.89
2016-08-09T00:09:30.107Z,6.89
2016-08-09T00:09:38.808Z,6.87
2016-08-09T00:09:47.550Z,6.87
2016-08-09T00:09:56.317Z,6.99
2016-08-09T00:10:05.033Z,6.84
2016-08-09T00:10:13.760Z,6.86
2016-08-09T00:10:22.488Z,6.86
2016-08-09T00:10:31.195Z,7.01
2016-08-09T00:10:39.935Z,6.91
2016-08-09T00:10:49.340Z,6.87
2016-08-09T00:10:58.047Z,6.99
2016-08-09T00:11:06.793Z,6.86
2016-08-09T00:11:15.469Z,6.86
2016-08-09T00:11:24.188Z,6.87
2016-08-09T00:11:32.896Z,6.97
2016-08-09T00:11:41.624Z,6.89
2016-08-09T00:11:50.335Z,6.98
2016-08-09T00:11:59.089Z,6.87
2016-08-09T00:12:07.819Z,6.84
2016-08-09T00:12:16.554Z,6.84
2016-08-09T00:12:25.259Z,6.83
2016-08-09T00:12:34.651Z,7.02
2016-08-09T00:12:43.396Z,6.99
2016-08-09T00:12:52.097Z,6.84
2016-08-09T00:13:00.786Z,6.81
2016-08-09T00:13:09.549Z,7.02
2016-08-09T00:13:18.273Z,7.01
2016-08-09T00:13:26.955Z,6.84
2016-08-09T00:13:35.701Z,6.84
2016-08-09T00:13:44.416Z,6.86
2016-08-09T00:13:53.117Z,6.87
2016-08-09T00:14:01.850Z,6.9
2016-08-09T00:14:10.549Z,6.81
2016-08-09T00:14:19.252Z,6.86
2016-08-09T00:14:28.634Z,6.84
2016-08-09T00:14:37.349Z,6.86
2016-08-09T00:14:46.053Z,6.84
2016-08-09T00:14:54.763Z,6.81
2016-08-09T00:15:03.453Z,6.79
2016-08-09T00:15:12.177Z,6.71
2016-08-09T00:15:20.892Z,6.68
2016-08-09T00:15:29.609Z,6.77
2016-08-09T00:15:38.330Z,6.66
2016-08-09T00:15:47.026Z,6.68
2016-08-09T00:15:55.729Z,6.65
2016-08-09T00:16:04.408Z,6.59
2016-08-09T00:16:13.150Z,6.63
2016-08-09T00:16:21.851Z,6.53
2016-08-09T00:16:30.578Z,6.56
2016-08-09T00:16:39.297Z,6.63
2016-08-09T00:17:05.416Z,6.46
2016-08-09T00:17:14.093Z,6.53
2016-08-09T00:17:22.781Z,6.54
2016-08-09T00:17:31.525Z,6.62
2016-08-09T00:17:40.213Z,6.51
2016-08-09T00:17:48.966Z,6.54
2016-08-09T00:17:58.391Z,6.62
2016-08-09T00:18:07.089Z,6.65
2016-08-09T00:18:15.779Z,6.5
2016-08-09T00:18:24.500Z,6.66
2016-08-09T00:18:33.182Z,6.56
2016-08-09T00:18:41.910Z,6.63
2016-08-09T00:18:50.621Z,6.62
2016-08-09T00:18:59.334Z,6.61
2016-08-09T00:19:08.038Z,6.58
2016-08-09T00:19:16.769Z,6.65
2016-08-09T00:19:25.514Z,6.66
2016-08-09T00:19:34.877Z,6.65
2016-08-09T00:19:52.243Z,6.69
2016-08-09T00:20:00.963Z,6.66
2016-08-09T00:20:09.717Z,6.58
2016-08-09T00:20:18.456Z,6.59
2016-08-09T00:20:27.163Z,6.59
2016-08-09T00:20:35.821Z,6.59
2016-08-09T00:20:44.501Z,6.63
2016-08-09T00:20:53.234Z,6.66
2016-08-09T00:21:01.991Z,6.63
2016-08-09T00:21:10.733Z,6.69
2016-08-09T00:21:19.417Z,6.68
2016-08-09T00:21:28.098Z,6.66
2016-08-09T00:21:36.775Z,6.68
2016-08-09T00:21:45.463Z,6.66
2016-08-09T00:21:54.122Z,6.68
2016-08-09T00:22:02.836Z,6.71
2016-08-09T00:22:11.546Z,6.68
2016-08-09T00:22:20.276Z,6.71
2016-08-09T00:22:29.001Z,6.65
2016-08-09T00:22:37.721Z,6.65
2016-08-09T00:22:46.429Z,6.71
2016-08-09T00:22:55.118Z,6.72
2016-08-09T00:23:03.864Z,6.66
2016-08-09T00:23:12.558Z,6.76
2016-08-09T00:23:21.284Z,6.71
2016-08-09T00:23:30.005Z,6.69
2016-08-09T00:23:38.726Z,6.71
2016-08-09T00:23:47.465Z,6.76
2016-08-09T00:23:56.212Z,6.76
2016-08-09T00:24:04.915Z,6.73
2016-08-09T00:24:13.642Z,6.72
2016-08-09T00:24:23.051Z,6.71
2016-08-09T00:24:31.762Z,6.62
2016-08-09T00:24:41.162Z,6.65
2016-08-09T00:24:50.590Z,6.71
2016-08-09T00:24:59.342Z,6.63
2016-08-09T00:25:08.060Z,6.71
2016-08-09T00:25:16.789Z,6.65
2016-08-09T00:25:25.526Z,6.69
2016-08-09T00:25:34.238Z,6.68
2016-08-09T00:25:42.955Z,6.72
2016-08-09T00:25:51.692Z,6.66
2016-08-09T00:26:00.368Z,6.66
2016-08-09T00:26:09.100Z,6.61
2016-08-09T00:26:17.824Z,6.61
2016-08-09T00:26:26.569Z,6.62
2016-08-09T00:26:35.264Z,6.61
2016-08-09T00:26:44.026Z,6.71
2016-08-09T00:26:52.748Z,6.61
2016-08-09T00:27:01.430Z,6.59
2016-08-09T00:27:10.130Z,6.59
2016-08-09T00:27:18.867Z,6.65
2016-08-09T00:27:27.570Z,6.68
2016-08-09T00:27:36.276Z,6.56
2016-08-09T00:27:44.994Z,6.61
2016-08-09T00:27:53.650Z,6.56
2016-08-09T00:28:02.364Z,6.59
2016-08-09T00:28:11.076Z,6.59
2016-08-09T00:28:19.784Z,6.66
2016-08-09T00:28:28.535Z,6.63
2016-08-09T00:28:37.237Z,6.65
2016-08-09T00:28:45.950Z,6.61
2016-08-09T00:28:54.685Z,6.56
2016-08-09T00:29:03.398Z,6.65
2016-08-09T00:29:12.115Z,6.61
2016-08-09T00:29:20.838Z,6.66
2016-08-09T00:29:29.515Z,6.68
2016-08-09T00:29:38.222Z,6.65
2016-08-09T00:29:46.920Z,6.73
2016-08-09T00:29:55.614Z,6.63
2016-08-09T00:30:04.353Z,6.63
2016-08-09T00:30:13.044Z,6.61
2016-08-09T00:30:22.450Z,6.61
2016-08-09T00:30:31.148Z,6.62
2016-08-09T00:30:39.869Z,6.61
2016-08-09T00:30:48.587Z,6.59
2016-08-09T00:30:57.255Z,6.56
2016-08-09T00:31:05.973Z,6.51
2016-08-09T00:31:14.669Z,6.51
2016-08-09T00:31:23.379Z,6.61
2016-08-09T00:31:32.099Z,6.61
2016-08-09T00:31:40.843Z,6.61
2016-08-09T00:31:49.579Z,6.56
2016-08-09T00:32:06.991Z,6.56
2016-08-09T00:32:15.711Z,6.53
2016-08-09T00:32:24.420Z,6.61
2016-08-09T00:32:33.113Z,6.61
2016-08-09T00:32:41.842Z,6.5
2016-08-09T00:32:50.542Z,6.5
2016-08-09T00:32:59.232Z,6.51
2016-08-09T00:33:07.970Z,6.51
2016-08-09T00:33:16.659Z,6.58
2016-08-09T00:33:25.360Z,6.61
2016-08-09T00:33:34.077Z,6.61
2016-08-09T00:33:43.471Z,6.54
2016-08-09T00:33:52.142Z,6.61
2016-08-09T00:34:00.831Z,6.47
2016-08-09T00:34:09.516Z,6.53
2016-08-09T00:34:18.239Z,6.53
2016-08-09T00:34:26.946Z,6.56
2016-08-09T00:34:35.664Z,6.46
2016-08-09T00:34:44.383Z,6.4
2016-08-09T00:34:53.067Z,6.44
2016-08-09T00:35:01.756Z,6.5
2016-08-09T00:35:10.467Z,6.44
2016-08-09T00:35:19.134Z,6.43
2016-08-09T00:35:27.859Z,6.43
2016-08-09T00:35:36.577Z,6.4
2016-08-09T00:35:45.257Z,6.43
2016-08-09T00:35:53.986Z,6.47
2016-08-09T00:36:02.705Z,6.44
2016-08-09T00:36:11.409Z,6.44
2016-08-09T00:36:20.105Z,6.43
2016-08-09T00:36:28.792Z,6.46
2016-08-09T00:36:37.533Z,6.46
2016-08-09T00:36:46.235Z,6.47
2016-08-09T00:36:54.979Z,6.46
2016-08-09T00:37:03.689Z,6.46
2016-08-09T00:37:12.398Z,6.48
2016-08-09T00:37:21.165Z,6.35
2016-08-09T00:37:29.882Z,6.5
2016-08-09T00:37:39.288Z,6.44
2016-08-09T00:37:47.986Z,6.43
2016-08-09T00:37:56.702Z,6.43
2016-08-09T00:38:05.402Z,6.46
2016-08-09T00:38:14.146Z,6.47
2016-08-09T00:38:22.864Z,6.44
2016-08-09T00:38:31.529Z,6.46
2016-08-09T00:38:40.305Z,6.44
2016-08-09T00:38:48.998Z,6.48
2016-08-09T00:38:57.680Z,6.44
2016-08-09T00:39:06.388Z,6.44
2016-08-09T00:39:15.058Z,6.48
2016-08-09T00:39:24.478Z,6.46
2016-08-09T00:39:33.192Z,6.44
2016-08-09T00:39:41.934Z,6.43
2016-08-09T00:39:51.329Z,6.43
2016-08-09T00:40:00.066Z,6.46
2016-08-09T00:40:08.786Z,6.4
2016-08-09T00:40:17.490Z,6.4
2016-08-09T00:40:26.186Z,6.38
2016-08-09T00:40:34.852Z,6.44
2016-08-09T00:40:43.563Z,6.5
2016-08-09T00:40:52.303Z,6.59
2016-08-09T00:41:01.717Z,6.47
2016-08-09T00:41:10.432Z,6.51
2016-08-09T00:41:19.196Z,6.51
2016-08-09T00:41:27.913Z,6.43
2016-08-09T00:41:36.608Z,6.53
2016-08-09T00:41:45.319Z,6.53
2016-08-09T00:41:54.040Z,6.56
2016-08-09T00:42:02.745Z,6.53
2016-08-09T00:42:11.459Z,6.46
2016-08-09T00:42:20.151Z,6.47
2016-08-09T00:42:28.843Z,6.47
2016-08-09T00:42:37.566Z,6.48
2016-08-09T00:42:46.294Z,6.56
2016-08-09T00:42:55.033Z,6.47
2016-08-09T00:43:03.755Z,6.48
2016-08-09T00:43:12.480Z,6.61
2016-08-09T00:43:21.218Z,6.46
2016-08-09T00:43:29.919Z,6.61
2016-08-09T00:43:38.599Z,6.44
2016-08-09T00:43:47.297Z,6.61
2016-08-09T00:43:55.985Z,6.63
2016-08-09T00:44:04.703Z,6.48
2016-08-09T00:44:13.440Z,6.66
2016-08-09T00:44:22.183Z,6.61
2016-08-09T00:44:30.906Z,6.62
2016-08-09T00:44:39.628Z,6.56
2016-08-09T00:44:48.371Z,6.53
2016-08-09T00:44:57.063Z,6.62
2016-08-09T00:45:05.746Z,6.62
2016-08-09T00:45:14.440Z,6.72
2016-08-09T00:45:23.166Z,6.62
2016-08-09T00:45:31.861Z,6.65
2016-08-09T00:45:40.584Z,6.72
2016-08-09T00:45:49.269Z,6.77
2016-08-09T00:45:57.977Z,6.72
2016-08-09T00:46:07.392Z,6.73
2016-08-09T00:46:16.091Z,6.72
2016-08-09T00:46:24.851Z,6.79
2016-08-09T00:46:33.566Z,6.81
2016-08-09T00:46:42.246Z,6.69
2016-08-09T00:46:51.009Z,6.81
2016-08-09T00:47:17.192Z,6.8
2016-08-09T00:47:25.871Z,6.84
2016-08-09T00:47:34.620Z,6.81
2016-08-09T00:47:43.299Z,6.84
2016-08-09T00:47:52.023Z,6.86
2016-08-09T00:48:00.766Z,6.81
2016-08-09T00:48:09.451Z,6.79
2016-08-09T00:48:18.183Z,6.81
2016-08-09T00:48:26.930Z,6.79
2016-08-09T00:48:35.631Z,6.84
2016-08-09T00:48:44.354Z,6.77
2016-08-09T00:48:53.056Z,6.79
2016-08-09T00:49:01.803Z,6.81
2016-08-09T00:49:10.526Z,6.83
2016-08-09T00:49:19.257Z,6.73
2016-08-09T00:49:27.973Z,6.77
2016-08-09T00:49:36.726Z,6.77
2016-08-09T00:49:45.473Z,6.79
2016-08-09T00:49:54.182Z,6.77
2016-08-09T00:50:02.898Z,6.8
2016-08-09T00:50:11.618Z,6.79
2016-08-09T00:50:20.332Z,6.83
2016-08-09T00:50:29.044Z,6.79
2016-08-09T00:50:37.786Z,6.8
2016-08-09T00:50:46.521Z,6.79
2016-08-09T00:50:55.230Z,6.77
2016-08-09T00:51:03.963Z,6.84
2016-08-09T00:51:12.669Z,6.77
2016-08-09T00:51:21.352Z,6.83
2016-08-09T00:51:30.059Z,6.79
2016-08-09T00:51:39.473Z,6.81
2016-08-09T00:51:48.880Z,6.79
2016-08-09T00:51:57.578Z,6.87
2016-08-09T00:52:06.313Z,6.86
2016-08-09T00:52:15.017Z,6.83
2016-08-09T00:52:23.751Z,6.68
2016-08-09T00:52:32.454Z,6.69
2016-08-09T00:52:41.162Z,6.71
2016-08-09T00:52:49.894Z,6.72
2016-08-09T00:52:58.607Z,6.72
2016-08-09T00:53:07.343Z,6.71
2016-08-09T00:53:16.076Z,6.65
2016-08-09T00:53:24.806Z,6.72
2016-08-09T00:53:33.578Z,6.68
2016-08-09T00:53:42.317Z,6.79
2016-08-09T00:53:51.029Z,6.73
2016-08-09T00:53:59.722Z,6.72
2016-08-09T00:54:08.462Z,6.77
2016-08-09T00:54:17.205Z,6.77
2016-08-09T00:54:25.917Z,6.76
2016-08-09T00:54:34.642Z,6.69
2016-08-09T00:54:43.364Z,6.76
2016-08-09T00:54:52.066Z,6.63
2016-08-09T00:55:00.769Z,6.62
2016-08-09T00:55:09.483Z,6.69
2016-08-09T00:55:18.221Z,6.68
2016-08-09T00:55:26.920Z,6.69
2016-08-09T00:55:35.635Z,6.68
2016-08-09T00:55:44.393Z,6.71
2016-08-09T00:55:53.102Z,6.65
2016-08-09T00:56:01.847Z,6.71
2016-08-09T00:56:10.559Z,6.72
2016-08-09T00:56:19.272Z,6.68
2016-08-09T00:56:28.014Z,6.66
2016-08-09T00:56:36.721Z,6.72
2016-08-09T00:56:45.423Z,6.66
2016-08-09T00:56:54.115Z,6.63
2016-08-09T00:57:02.839Z,6.58
2016-08-09T00:57:11.567Z,6.61
2016-08-09T00:57:20.246Z,6.66
2016-08-09T00:57:28.977Z,6.58
2016-08-09T00:57:37.677Z,6.59
2016-08-09T00:57:46.359Z,6.61
2016-08-09T00:57:55.039Z,6.61
2016-08-09T00:58:03.744Z,6.59
2016-08-09T00:58:12.486Z,6.65
2016-08-09T00:58:21.187Z,6.68
2016-08-09T00:58:29.896Z,6.62
2016-08-09T00:58:38.579Z,6.59
2016-08-09T00:58:47.285Z,6.63
2016-08-09T00:58:56.013Z,6.63
2016-08-09T00:59:04.754Z,6.73
2016-08-09T00:59:13.476Z,6.63
2016-08-09T00:59:22.192Z,6.61
2016-08-09T00:59:30.857Z,6.63
2016-08-09T00:59:39.566Z,6.62
2016-08-09T00:59:48.312Z,6.53
2016-08-09T00:59:57.687Z,6.58
2016-08-09T01:00:06.401Z,6.61
2016-08-09T01:00:15.139Z,6.53
2016-08-09T01:00:23.834Z,6.63
2016-08-09T01:00:33.207Z,6.59
2016-08-09T01:00:41.917Z,6.54
2016-08-09T01:00:50.627Z,6.59
2016-08-09T01:00:59.327Z,6.59
2016-08-09T01:01:08.068Z,6.59
2016-08-09T01:01:16.772Z,6.61
2016-08-09T01:01:25.525Z,6.62
2016-08-09T01:01:34.218Z,6.63
2016-08-09T01:01:42.927Z,6.61
2016-08-09T01:01:51.661Z,6.61
2016-08-09T01:02:00.341Z,6.61
2016-08-09T01:02:09.051Z,6.68
2016-08-09T01:02:26.465Z,6.63
2016-08-09T01:02:35.138Z,6.63
2016-08-09T01:02:43.878Z,6.51
2016-08-09T01:02:52.558Z,6.59
2016-08-09T01:03:01.977Z,6.59
2016-08-09T01:03:10.723Z,6.48
2016-08-09T01:03:19.449Z,6.53
2016-08-09T01:03:28.148Z,6.62
2016-08-09T01:03:36.843Z,6.58
2016-08-09T01:03:45.542Z,6.51
2016-08-09T01:03:54.252Z,6.56
2016-08-09T01:04:02.971Z,6.73
2016-08-09T01:04:11.681Z,6.58
2016-08-09T01:04:20.416Z,6.63
2016-08-09T01:04:29.811Z,6.59
2016-08-09T01:04:38.554Z,6.56
2016-08-09T01:04:47.285Z,6.59
2016-08-09T01:04:56.012Z,6.59
2016-08-09T01:05:04.735Z,6.68
2016-08-09T01:05:13.425Z,6.69
2016-08-09T01:05:22.116Z,6.68
2016-08-09T01:05:30.839Z,6.69
2016-08-09T01:05:39.518Z,6.73
2016-08-09T01:05:48.188Z,6.76
2016-08-09T01:05:56.929Z,6.68
2016-08-09T01:06:05.633Z,6.68
2016-08-09T01:06:14.315Z,6.73
2016-08-09T01:06:23.057Z,6.71
2016-08-09T01:06:31.788Z,6.71
2016-08-09T01:06:40.499Z,6.71
2016-08-09T01:06:49.244Z,6.65
2016-08-09T01:06:58.630Z,6.71
2016-08-09T01:07:07.341Z,6.77
2016-08-09T01:07:16.047Z,6.69
2016-08-09T01:07:24.733Z,6.73
2016-08-09T01:07:33.463Z,6.71
2016-08-09T01:07:42.166Z,6.68
2016-08-09T01:07:50.866Z,6.73
2016-08-09T01:07:59.589Z,6.66
2016-08-09T01:08:08.243Z,6.73
2016-08-09T01:08:16.958Z,6.8
2016-08-09T01:08:25.700Z,6.73
2016-08-09T01:08:34.437Z,6.76
2016-08-09T01:08:43.145Z,6.69
2016-08-09T01:08:51.843Z,6.79
2016-08-09T01:09:00.540Z,6.69
2016-08-09T01:09:09.223Z,6.68
2016-08-09T01:09:17.906Z,6.77
2016-08-09T01:09:26.630Z,6.71
2016-08-09T01:09:35.339Z,6.72
2016-08-09T01:09:44.034Z,6.76
2016-08-09T01:09:52.757Z,6.73
2016-08-09T01:10:01.451Z,6.8
2016-08-09T01:10:10.145Z,6.73
2016-08-09T01:10:18.898Z,6.8
2016-08-09T01:10:27.639Z,6.73
2016-08-09T01:10:36.335Z,6.79
2016-08-09T01:10:45.046Z,6.71
2016-08-09T01:10:53.750Z,6.81
2016-08-09T01:11:02.472Z,6.81
2016-08-09T01:11:11.875Z,6.76
2016-08-09T01:11:21.223Z,6.77
2016-08-09T01:11:29.948Z,6.66
2016-08-09T01:11:38.689Z,6.72
2016-08-09T01:11:47.387Z,6.72
2016-08-09T01:11:56.124Z,6.76
2016-08-09T01:12:04.804Z,6.72
2016-08-09T01:12:13.526Z,6.73
2016-08-09T01:12:22.224Z,6.69
2016-08-09T01:12:30.960Z,6.69
2016-08-09T01:12:39.646Z,6.71
2016-08-09T01:12:48.352Z,6.68
2016-08-09T01:12:57.035Z,6.71
2016-08-09T01:13:05.784Z,6.69
2016-08-09T01:13:14.496Z,6.71
2016-08-09T01:13:23.216Z,6.72
2016-08-09T01:13:31.914Z,6.71
2016-08-09T01:13:40.607Z,6.71
2016-08-09T01:13:49.329Z,6.69
2016-08-09T01:13:58.048Z,6.68
2016-08-09T01:14:06.788Z,6.69
2016-08-09T01:14:15.507Z,6.69
2016-08-09T01:14:24.208Z,6.69
2016-08-09T01:14:32.927Z,6.63
2016-08-09T01:14:41.679Z,6.65
2016-08-09T01:14:51.086Z,6.58
2016-08-09T01:14:59.839Z,6.65
2016-08-09T01:15:08.548Z,6.65
2016-08-09T01:15:17.949Z,6.61
2016-08-09T01:15:26.673Z,6.62
2016-08-09T01:15:35.398Z,6.59
2016-08-09T01:15:44.099Z,6.61
2016-08-09T01:15:52.794Z,6.66
2016-08-09T01:16:01.495Z,6.68
2016-08-09T01:16:10.195Z,6.63
2016-08-09T01:16:18.899Z,6.63
2016-08-09T01:16:27.625Z,6.63
2016-08-09T01:16:36.342Z,6.59
2016-08-09T01:16:45.043Z,6.62
2016-08-09T01:16:53.774Z,6.61
2016-08-09T01:17:02.500Z,6.62
2016-08-09T01:17:11.231Z,6.65
2016-08-09T01:17:29.334Z,6.62
2016-08-09T01:17:38.064Z,6.56
2016-08-09T01:17:46.774Z,6.61
2016-08-09T01:17:55.466Z,6.72
2016-08-09T01:18:04.173Z,6.62
2016-08-09T01:18:12.883Z,6.61
2016-08-09T01:18:21.556Z,6.62
2016-08-09T01:18:30.294Z,6.5
2016-08-09T01:18:39.671Z,6.56
2016-08-09T01:18:48.395Z,6.59
2016-08-09T01:18:57.146Z,6.56
2016-08-09T01:19:05.879Z,6.61
2016-08-09T01:19:14.568Z,6.5
2016-08-09T01:19:23.260Z,6.63
2016-08-09T01:19:31.981Z,6.61
2016-08-09T01:19:40.666Z,6.58
2016-08-09T01:19:49.381Z,6.61
2016-08-09T01:19:58.095Z,6.66
2016-08-09T01:20:06.836Z,6.61
2016-08-09T01:20:15.599Z,6.65
2016-08-09T01:20:24.323Z,6.65
2016-08-09T01:20:33.005Z,6.77
2016-08-09T01:20:41.723Z,6.62
2016-08-09T01:20:50.456Z,6.68
2016-08-09T01:20:59.158Z,6.62
2016-08-09T01:21:07.915Z,6.59
2016-08-09T01:21:16.654Z,6.69
2016-08-09T01:21:25.356Z,6.66
2016-08-09T01:21:34.057Z,6.66
2016-08-09T01:21:42.785Z,6.72
2016-08-09T01:21:51.501Z,6.63
2016-08-09T01:22:00.195Z,6.56
2016-08-09T01:22:08.932Z,6.68
2016-08-09T01:22:17.658Z,6.72
2016-08-09T01:22:26.384Z,6.61
2016-08-09T01:22:35.045Z,6.69
2016-08-09T01:22:43.774Z,6.65
2016-08-09T01:22:52.491Z,6.58
2016-08-09T01:23:01.215Z,6.63
2016-08-09T01:23:09.912Z,6.61
2016-08-09T01:23:18.611Z,6.66
2016-08-09T01:23:27.336Z,6.72
2016-08-09T01:23:36.055Z,6.73
2016-08-09T01:23:44.759Z,6.61
2016-08-09T01:23:53.451Z,6.68
2016-08-09T01:24:02.178Z,6.68
2016-08-09T01:24:10.930Z,6.65
2016-08-09T01:24:19.654Z,6.66
2016-08-09T01:24:28.375Z,6.68
2016-08-09T01:24:37.141Z,6.71
2016-08-09T01:24:45.874Z,6.61
2016-08-09T01:24:54.564Z,6.66
2016-08-09T01:25:03.263Z,6.65
2016-08-09T01:25:11.978Z,6.69
2016-08-09T01:25:20.704Z,6.71
2016-08-09T01:25:29.430Z,6.65
2016-08-09T01:25:38.134Z,6.69
2016-08-09T01:25:46.851Z,6.69
2016-08-09T01:25:55.570Z,6.66
2016-08-09T01:26:04.256Z,6.72
2016-08-09T01:26:12.955Z,6.68
2016-08-09T01:26:21.695Z,6.71
2016-08-09T01:26:30.417Z,6.69
2016-08-09T01:26:39.154Z,6.69
2016-08-09T01:26:47.883Z,6.69
2016-08-09T01:26:56.585Z,6.68
2016-08-09T01:27:05.297Z,6.65
2016-08-09T01:27:13.962Z,6.71
2016-08-09T01:27:22.689Z,6.76
2016-08-09T01:27:31.408Z,6.71
2016-08-09T01:27:40.077Z,6.71
2016-08-09T01:27:48.784Z,6.68
2016-08-09T01:27:57.496Z,6.69
2016-08-09T01:28:06.206Z,6.69
2016-08-09T01:28:14.924Z,6.69
2016-08-09T01:28:23.633Z,6.73
2016-08-09T01:28:32.344Z,6.68
2016-08-09T01:28:41.057Z,6.69
2016-08-09T01:28:49.752Z,6.71
2016-08-09T01:28:58.433Z,6.76
2016-08-09T01:29:07.136Z,6.68
2016-08-09T01:29:15.902Z,6.69
2016-08-09T01:29:24.615Z,6.68
2016-08-09T01:29:33.350Z,6.68
2016-08-09T01:29:42.087Z,6.69
2016-08-09T01:29:51.451Z,6.73
2016-08-09T01:30:00.215Z,6.69
2016-08-09T01:30:08.945Z,6.68
2016-08-09T01:30:17.664Z,6.66
2016-08-09T01:30:26.362Z,6.69
2016-08-09T01:30:35.088Z,6.68
2016-08-09T01:30:43.770Z,6.65
2016-08-09T01:30:52.495Z,6.65
2016-08-09T01:31:01.238Z,6.68
2016-08-09T01:31:09.946Z,6.69
2016-08-09T01:31:18.642Z,6.71
2016-08-09T01:31:27.347Z,6.71
2016-08-09T01:31:36.047Z,6.68
2016-08-09T01:31:44.743Z,6.71
2016-08-09T01:31:53.434Z,6.69
2016-08-09T01:32:02.152Z,6.76
2016-08-09T01:32:10.893Z,6.77
2016-08-09T01:32:28.223Z,6.76
2016-08-09T01:32:36.932Z,6.76
2016-08-09T01:32:45.659Z,6.69
2016-08-09T01:32:54.375Z,6.72
2016-08-09T01:33:03.114Z,6.71
2016-08-09T01:33:11.851Z,6.68
2016-08-09T01:33:20.571Z,6.71
2016-08-09T01:33:29.955Z,6.69
2016-08-09T01:33:38.702Z,6.79
2016-08-09T01:33:47.412Z,6.71
2016-08-09T01:33:56.819Z,6.69
2016-08-09T01:34:05.522Z,6.68
2016-08-09T01:34:14.260Z,6.76
2016-08-09T01:34:23.017Z,6.68
2016-08-09T01:34:31.710Z,6.71
2016-08-09T01:34:40.418Z,6.69
2016-08-09T01:34:49.152Z,6.71
2016-08-09T01:34:57.832Z,6.69
2016-08-09T01:35:06.540Z,6.71
2016-08-09T01:35:15.249Z,6.68
2016-08-09T01:35:23.973Z,6.68
2016-08-09T01:35:32.696Z,6.76
2016-08-09T01:35:41.399Z,6.76
2016-08-09T01:35:50.117Z,6.71
2016-08-09T01:35:58.815Z,6.72
2016-08-09T01:36:08.189Z,6.69
2016-08-09T01:36:16.936Z,6.68
2016-08-09T01:36:25.639Z,6.66
2016-08-09T01:36:34.363Z,6.65
2016-08-09T01:36:43.094Z,6.68
2016-08-09T01:36:51.814Z,6.69
2016-08-09T01:37:00.506Z,6.62
2016-08-09T01:37:09.222Z,6.66
2016-08-09T01:37:17.952Z,6.68
2016-08-09T01:37:26.719Z,6.69
2016-08-09T01:37:35.461Z,6.62
2016-08-09T01:37:44.187Z,6.68
2016-08-09T01:37:52.889Z,6.76
2016-08-09T01:38:01.554Z,6.72
2016-08-09T01:38:10.291Z,6.68
2016-08-09T01:38:19.029Z,6.63
2016-08-09T01:38:27.734Z,6.61
2016-08-09T01:38:36.488Z,6.61
2016-08-09T01:38:45.199Z,6.62
2016-08-09T01:38:53.921Z,6.62
2016-08-09T01:39:02.677Z,6.65
2016-08-09T01:39:11.389Z,6.68
2016-08-09T01:39:20.115Z,6.61
2016-08-09T01:39:28.863Z,6.68
2016-08-09T01:39:38.269Z,6.61
2016-08-09T01:39:47.033Z,6.65
2016-08-09T01:39:55.771Z,6.68
2016-08-09T01:40:04.480Z,6.68
2016-08-09T01:40:13.169Z,6.66
2016-08-09T01:40:21.835Z,6.66
2016-08-09T01:40:30.558Z,6.72
2016-08-09T01:40:39.263Z,6.69
2016-08-09T01:40:47.976Z,6.69
2016-08-09T01:40:56.695Z,6.73
2016-08-09T01:41:05.406Z,6.72
2016-08-09T01:41:14.169Z,6.79
2016-08-09T01:41:22.872Z,6.69
2016-08-09T01:41:31.568Z,6.79
2016-08-09T01:41:40.301Z,6.79
2016-08-09T01:41:49.053Z,6.83
2016-08-09T01:41:57.796Z,6.79
2016-08-09T01:42:06.520Z,6.76
2016-08-09T01:42:15.242Z,6.79
2016-08-09T01:42:23.921Z,6.77
2016-08-09T01:42:32.610Z,6.8
2016-08-09T01:42:41.335Z,6.79
2016-08-09T01:42:50.048Z,6.84
2016-08-09T01:42:58.771Z,6.86
2016-08-09T01:43:07.457Z,6.86
2016-08-09T01:43:16.179Z,6.81
2016-08-09T01:43:24.922Z,6.83
2016-08-09T01:43:33.600Z,6.87
2016-08-09T01:43:42.304Z,6.87
2016-08-09T01:43:50.995Z,6.77
2016-08-09T01:43:59.719Z,6.94
2016-08-09T01:44:08.398Z,6.83
2016-08-09T01:44:17.132Z,6.87
2016-08-09T01:44:25.839Z,6.84
2016-08-09T01:44:34.530Z,6.8
2016-08-09T01:44:43.240Z,6.79
2016-08-09T01:44:51.936Z,6.87
2016-08-09T01:45:00.657Z,6.87
2016-08-09T01:45:09.382Z,6.95
2016-08-09T01:45:18.108Z,6.86
2016-08-09T01:45:26.831Z,6.89
2016-08-09T01:45:35.516Z,6.87
2016-08-09T01:45:44.234Z,6.86
2016-08-09T01:45:53.584Z,6.86
2016-08-09T01:46:02.301Z,6.87
2016-08-09T01:46:11.023Z,6.86
2016-08-09T01:46:19.683Z,6.9
2016-08-09T01:46:28.387Z,6.91
2016-08-09T01:46:37.102Z,6.9
2016-08-09T01:46:45.861Z,6.87
2016-08-09T01:46:54.562Z,6.89
2016-08-09T01:47:03.977Z,6.89
2016-08-09T01:47:12.722Z,7.01
2016-08-09T01:47:30.123Z,6.9
2016-08-09T01:47:38.842Z,6.99
2016-08-09T01:47:47.520Z,6.89
2016-08-09T01:47:56.220Z,6.87
2016-08-09T01:48:04.918Z,6.89
2016-08-09T01:48:13.608Z,6.87
2016-08-09T01:48:22.289Z,6.89
2016-08-09T01:48:31.033Z,6.86
2016-08-09T01:48:39.735Z,6.86
2016-08-09T01:48:48.470Z,6.87
2016-08-09T01:48:57.169Z,6.84
2016-08-09T01:49:05.846Z,6.86
2016-08-09T01:49:14.553Z,6.95
2016-08-09T01:49:23.263Z,6.9
2016-08-09T01:49:31.959Z,6.86
2016-08-09T01:49:40.651Z,6.98
2016-08-09T01:49:49.389Z,6.87
2016-08-09T01:49:58.109Z,6.81
2016-08-09T01:50:06.844Z,7.01
2016-08-09T01:50:15.586Z,6.98
2016-08-09T01:50:24.976Z,6.89
2016-08-09T01:50:33.668Z,6.81
2016-08-09T01:50:42.374Z,6.91
2016-08-09T01:50:51.065Z,7.02
2016-08-09T01:50:59.802Z,6.87
2016-08-09T01:51:08.531Z,7.04
2016-08-09T01:51:17.278Z,6.98
2016-08-09T01:51:26.025Z,6.99
2016-08-09T01:51:34.725Z,6.95
2016-08-09T01:51:43.430Z,6.97
2016-08-09T01:51:52.861Z,7.02
2016-08-09T01:52:02.312Z,6.95
2016-08-09T01:52:11.014Z,6.89
2016-08-09T01:52:19.684Z,6.98
2016-08-09T01:52:28.377Z,7.04
2016-08-09T01:52:37.074Z,6.95
2016-08-09T01:52:45.787Z,7.01
2016-08-09T01:52:54.522Z,6.97
2016-08-09T01:53:03.232Z,6.97
2016-08-09T01:53:11.943Z,7.04
2016-08-09T01:53:20.673Z,6.98
2016-08-09T01:53:29.349Z,6.95
2016-08-09T01:53:38.023Z,7.04
2016-08-09T01:53:46.720Z,6.95
2016-08-09T01:53:55.434Z,6.89
2016-08-09T01:54:04.143Z,6.98
2016-08-09T01:54:12.891Z,7.04
2016-08-09T01:54:21.608Z,6.94
2016-08-09T01:54:30.334Z,6.95
2016-08-09T01:54:39.017Z,6.91
2016-08-09T01:54:47.755Z,7.01
2016-08-09T01:54:56.436Z,6.9
2016-08-09T01:55:05.159Z,6.84
2016-08-09T01:55:13.898Z,6.86
2016-08-09T01:55:22.580Z,6.86
2016-08-09T01:55:31.277Z,6.86
2016-08-09T01:55:39.986Z,6.94
2016-08-09T01:55:48.709Z,6.87
2016-08-09T01:55:57.425Z,6.86
2016-08-09T01:56:06.124Z,7.01
2016-08-09T01:56:14.800Z,6.89
2016-08-09T01:56:23.508Z,6.89
2016-08-09T01:56:32.224Z,6.86
2016-08-09T01:56:40.919Z,6.9
2016-08-09T01:56:49.649Z,6.81
2016-08-09T01:56:58.378Z,6.87
2016-08-09T01:57:07.102Z,6.91
2016-08-09T01:57:16.529Z,6.86
2016-08-09T01:57:25.248Z,6.86
2016-08-09T01:57:33.959Z,6.87
2016-08-09T01:57:42.671Z,6.87
2016-08-09T01:57:51.378Z,6.84
2016-08-09T01:58:00.118Z,6.81
2016-08-09T01:58:08.845Z,6.8